This is the latest recevied weather packets stored in our database for station/object G8LMY. If no packets are shown the sender has not sent any weather packets the latest 10 day(s).
| Time | Temp. | Humidity | Pressure | Rain* | Wind** | Luminosity | Snow |
|---|---|---|---|---|---|---|---|
| 1777700335 | 9.44° C | 91% | 1017.6 hPa | 0 mm | - | - | - |
| 1777699434 | 9.44° C | 91% | 1017.7 hPa | 0 mm | - | - | - |
| 1777696074 | 10° C | 91% | 1017.5 hPa | 0 mm | - | - | - |
| 1777695835 | 10° C | 91% | 1017.5 hPa | 0 mm | - | - | - |
| 1777694934 | 10° C | 91% | 1017.7 hPa | 0 mm | - | - | - |
| 1777693134 | 10° C | 91% | 1017.8 hPa | 0 mm | - | - | - |
| 1777692234 | 9.44° C | 91% | 1017.9 hPa | 0 mm | - | - | - |
| 1777691334 | 10° C | 90% | 1018 hPa | 0 mm | - | - | - |
| 1777689534 | 10° C | 89% | 1018 hPa | 0 mm | - | - | - |
| 1777687735 | 10.56° C | 89% | 1018 hPa | 0 mm | - | - | - |
| 1777685934 | 10.56° C | 89% | 1018.1 hPa | 0 mm | - | - | - |
| 1777684134 | 10.56° C | 87% | 1018.3 hPa | 0 mm | - | - | - |
| 1777683234 | 10.56° C | 87% | 1018.4 hPa | 0 mm | - | - | - |
| 1777682334 | 10.56° C | 87% | 1018.6 hPa | 0 mm | - | - | - |
| 1777681435 | 11.11° C | 86% | 1018.8 hPa | 0 mm | - | - | - |
| 1777679635 | 11.11° C | 86% | 1018.8 hPa | 0 mm | - | - | - |
| 1777678735 | 11.11° C | 85% | 1018.9 hPa | 0 mm | - | - | - |
| 1777677835 | 11.11° C | 84% | 1019 hPa | 0 mm | - | - | - |
| 1777676935 | 11.67° C | 83% | 1018.9 hPa | 0 mm | - | - | - |
| 1777676034 | 11.67° C | 81% | 1019.1 hPa | 0 mm | - | - | - |
| 1777673335 | 12.78° C | 77% | 1018.8 hPa | 0 mm | - | - | - |
| 1777672434 | 12.78° C | 74% | 1018.8 hPa | 0 mm | - | - | - |
| 1777671534 | 13.33° C | 73% | 1018.8 hPa | 0 mm | - | - | - |
| 1777670634 | 13.89° C | 71% | 1018.9 hPa | 0 mm | - | - | - |
| 1777669735 | 14.44° C | 71% | 1018.8 hPa | 0 mm | - | - | - |
* Rain latest hour (hover to see other rain measurements)
** Current wind speed in m/s (hover to see current wind gust speed)